バミューダ の空港の天気 - METARとTAF

バミューダ国際空港 ( TXKF / BDA ) - バミューダ諸島 Ferry Reach
飛行場実況気象(Metar)
観測時間10/19 14:55 ADT (10/19 17:55 UTC)
風向・風速北北東 6m/s
視程10km以上
天気現象
少しの雲 雲底高度 1370m
全天の4割程度の雲 雲底高度 1890m
全天の4割程度の雲 雲底高度 9140m
気温23℃
湿度50%
気圧1023hPa
METARTXKF 191755Z 02012KT 9999 FEW045 SCT062 SCT300 23/12 Q1023
過去の天気等 Google飛行場航空写真 Wunderground天気予報

過去48時間のMETAR

飛行場予報(TAF)
発表時間: 10/19 14:31 ADT (10/19 17:31 UTC)
予報対象時間: 19日15時 ADT ~ 20日15時 ADT
風向・風速北北東 7m/s
視程10km以上
少しの雲 雲底高度 1220m
全天の4割程度の雲 雲底高度 1830m
19日21時 ADT ~ 19日24時 ADT に徐々に
風向・風速東 7m/s
TAF TXKF 191731Z 1918/2018 03013KT 9999 FEW040 SCT060
BECMG 2000/2003 08013KT